createdAt,value
2018-09-04T00:01:58.165Z,24.00
2018-09-04T00:04:03.859Z,26.10
2018-09-04T00:06:08.298Z,27.20
2018-09-04T00:08:13.238Z,26.07
2018-09-04T00:10:17.456Z,25.27
2018-09-04T00:12:22.467Z,26.70
2018-09-04T00:14:26.414Z,27.73
2018-09-04T00:16:30.601Z,25.37
2018-09-04T00:18:34.613Z,27.97
2018-09-04T00:20:38.496Z,29.07
2018-09-04T00:22:42.705Z,27.73
2018-09-04T00:24:48.144Z,28.13
2018-09-04T00:26:52.056Z,27.17
2018-09-04T00:28:56.061Z,28.57
2018-09-04T00:31:01.195Z,29.80
2018-09-04T00:33:05.262Z,29.20
2018-09-04T00:35:11.567Z,29.77
2018-09-04T00:37:15.468Z,28.50
2018-09-04T00:39:19.349Z,27.60
2018-09-04T00:41:23.504Z,28.83
2018-09-04T00:43:27.377Z,30.07
2018-09-04T00:45:31.250Z,28.27
2018-09-04T00:47:36.024Z,28.60
2018-09-04T00:49:39.941Z,28.90
2018-09-04T00:51:43.853Z,28.30
2018-09-04T00:53:47.768Z,28.73
2018-09-04T00:55:51.637Z,28.17
2018-09-04T00:57:55.672Z,27.60
2018-09-04T00:59:59.569Z,29.53
2018-09-04T01:02:03.544Z,29.37
2018-09-04T01:04:07.511Z,28.03
2018-09-04T01:06:12.797Z,27.73
2018-09-04T01:08:16.679Z,29.07
2018-09-04T01:10:22.441Z,30.30
2018-09-04T01:12:26.801Z,27.90
2018-09-04T01:14:30.712Z,29.70
2018-09-04T01:16:40.821Z,30.00
2018-09-04T01:18:44.799Z,28.53
2018-09-04T01:20:49.427Z,29.97
2018-09-04T01:22:53.266Z,28.73
2018-09-04T01:24:59.193Z,29.07
2018-09-04T01:27:03.047Z,27.20
2018-09-04T01:29:07.660Z,29.43
2018-09-04T01:31:13.110Z,30.20
2018-09-04T01:33:17.569Z,29.83
2018-09-04T01:35:21.514Z,32.37
2018-09-04T01:37:25.717Z,30.67
2018-09-04T01:39:29.716Z,31.20
2018-09-04T01:41:33.629Z,30.87
2018-09-04T01:43:38.349Z,31.07
2018-09-04T01:45:43.162Z,30.20
2018-09-04T01:47:47.997Z,30.00
2018-09-04T01:49:52.551Z,30.13
2018-09-04T01:51:56.620Z,30.73
2018-09-04T01:54:03.721Z,30.63
2018-09-04T01:56:08.542Z,30.13
2018-09-04T01:58:12.749Z,28.57
2018-09-04T02:00:17.524Z,26.57
2018-09-04T02:02:22.745Z,24.63
2018-09-04T02:04:26.696Z,26.07
2018-09-04T02:06:30.584Z,24.70
2018-09-04T02:08:34.809Z,27.60
2018-09-04T02:10:38.832Z,27.90
2018-09-04T02:12:42.798Z,29.57
2018-09-04T02:14:48.178Z,30.33
2018-09-04T02:16:52.244Z,28.17
2018-09-04T02:18:56.341Z,27.67
2018-09-04T02:21:04.092Z,27.47
2018-09-04T02:23:09.041Z,26.57
2018-09-04T02:25:12.949Z,26.77
2018-09-04T02:27:21.799Z,28.60
2018-09-04T02:29:25.669Z,28.70
2018-09-04T02:31:31.090Z,26.93
2018-09-04T02:33:35.568Z,28.83
2018-09-04T02:35:43.810Z,27.40
2018-09-04T02:37:49.781Z,27.40
2018-09-04T02:39:58.124Z,29.33
2018-09-04T02:42:02.569Z,29.83
2018-09-04T02:44:08.116Z,30.23
2018-09-04T02:46:13.719Z,30.03
2018-09-04T02:48:21.287Z,30.03
2018-09-04T02:50:28.874Z,29.97
2018-09-04T02:52:33.860Z,30.90
2018-09-04T02:54:39.277Z,31.47
2018-09-04T02:56:44.633Z,31.90
2018-09-04T02:58:50.553Z,31.00
2018-09-04T03:00:54.541Z,30.20
2018-09-04T03:02:59.218Z,30.77
2018-09-04T03:05:03.606Z,30.77
2018-09-04T03:07:09.473Z,28.87
2018-09-04T03:09:14.717Z,30.23
2018-09-04T03:11:20.952Z,30.47
2018-09-04T03:13:25.806Z,30.03
2018-09-04T03:15:31.287Z,32.00
2018-09-04T03:17:35.549Z,31.37
2018-09-04T03:19:40.672Z,30.13
2018-09-04T03:21:45.379Z,32.63
2018-09-04T03:23:50.693Z,33.73
2018-09-04T03:25:56.733Z,32.70
2018-09-04T03:28:01.533Z,32.40
2018-09-04T03:30:06.070Z,35.77
2018-09-04T03:32:11.689Z,33.97
2018-09-04T03:34:15.686Z,34.77
2018-09-04T03:36:20.408Z,36.00
2018-09-04T03:38:24.248Z,38.33
2018-09-04T03:40:30.291Z,35.47
2018-09-04T03:42:34.739Z,36.43
2018-09-04T03:44:41.319Z,36.63
2018-09-04T03:46:47.003Z,39.63
2018-09-04T03:48:52.716Z,37.20
2018-09-04T03:50:56.708Z,39.27
2018-09-04T03:53:00.594Z,38.03
2018-09-04T03:55:04.567Z,38.93
2018-09-04T03:57:08.606Z,39.47
2018-09-04T03:59:12.537Z,38.00
2018-09-04T04:01:16.917Z,38.47
2018-09-04T04:03:20.917Z,39.63
2018-09-04T04:05:24.777Z,37.77
2018-09-04T04:07:32.821Z,37.67
2018-09-04T04:09:36.664Z,38.80
2018-09-04T04:11:41.581Z,38.37
2018-09-04T04:13:45.857Z,39.13
2018-09-04T04:15:49.997Z,38.70
2018-09-04T04:17:54.359Z,42.07
2018-09-04T04:19:59.360Z,39.57
2018-09-04T04:22:03.237Z,41.43
2018-09-04T04:24:07.188Z,41.07
2018-09-04T04:26:11.789Z,39.43
2018-09-04T04:28:15.724Z,41.27
2018-09-04T04:30:22.261Z,40.37
2018-09-04T04:32:27.221Z,39.77
2018-09-04T04:34:31.133Z,40.73
2018-09-04T04:36:35.829Z,40.87
2018-09-04T04:38:40.097Z,39.73
2018-09-04T04:40:43.981Z,40.40
2018-09-04T04:42:47.932Z,40.40
2018-09-04T04:44:51.839Z,41.80
2018-09-04T04:46:55.688Z,41.30
2018-09-04T04:48:59.588Z,39.47
2018-09-04T04:51:03.784Z,41.37
2018-09-04T04:53:07.739Z,40.63
2018-09-04T04:55:11.614Z,40.03
2018-09-04T04:57:15.780Z,41.60
2018-09-04T04:59:19.657Z,41.50
2018-09-04T05:01:25.156Z,42.00
2018-09-04T05:03:29.424Z,40.40
2018-09-04T05:05:33.329Z,42.77
2018-09-04T05:07:37.316Z,41.87
2018-09-04T05:09:45.049Z,41.43
2018-09-04T05:11:49.001Z,39.57
2018-09-04T05:13:52.954Z,41.57
2018-09-04T05:15:56.849Z,40.03
2018-09-04T05:18:00.721Z,42.27
2018-09-04T05:20:04.741Z,41.60
2018-09-04T05:22:08.713Z,39.60
2018-09-04T05:24:19.086Z,40.97
2018-09-04T05:26:24.163Z,39.73
2018-09-04T05:28:28.079Z,39.10
2018-09-04T05:30:32.102Z,39.23
2018-09-04T05:32:42.626Z,36.80
2018-09-04T05:34:46.617Z,38.40
2018-09-04T05:36:50.622Z,35.43
2018-09-04T05:38:54.831Z,35.43
2018-09-04T05:41:00.353Z,33.33
2018-09-04T05:43:06.243Z,33.23
2018-09-04T05:45:11.907Z,33.33
2018-09-04T05:47:15.932Z,33.00
2018-09-04T05:49:29.079Z,33.70
2018-09-04T05:51:34.761Z,30.70
2018-09-04T05:53:38.754Z,31.93
2018-09-04T05:55:43.603Z,31.67
2018-09-04T05:57:47.872Z,32.57
2018-09-04T05:59:51.893Z,32.53
2018-09-04T06:01:56.860Z,33.03
2018-09-04T06:04:01.195Z,33.27
2018-09-04T06:06:08.985Z,32.80
2018-09-04T06:08:14.545Z,32.17
2018-09-04T06:10:18.568Z,32.23
2018-09-04T06:12:27.766Z,31.90
2018-09-04T06:14:32.556Z,31.53
2018-09-04T06:16:36.801Z,31.57
2018-09-04T06:18:41.242Z,31.00
2018-09-04T06:20:48.065Z,30.37
2018-09-04T06:22:54.426Z,31.07
2018-09-04T06:25:00.634Z,32.23
2018-09-04T06:27:04.693Z,31.80
2018-09-04T06:29:08.996Z,31.27
2018-09-04T06:31:13.805Z,33.23
2018-09-04T06:33:18.505Z,32.53
2018-09-04T06:35:22.798Z,32.50
2018-09-04T06:37:26.765Z,35.30
2018-09-04T06:39:31.495Z,31.30
2018-09-04T06:41:36.340Z,33.40
2018-09-04T06:43:40.612Z,36.27
2018-09-04T06:45:44.480Z,35.27
2018-09-04T06:47:59.405Z,42.00
2018-09-04T06:50:04.096Z,41.73
2018-09-04T06:52:08.061Z,42.13
2018-09-04T06:54:12.098Z,40.20
2018-09-04T06:56:16.043Z,40.50
2018-09-04T06:58:20.178Z,40.73
2018-09-04T07:00:25.319Z,41.17
2018-09-04T07:02:29.630Z,42.23
2018-09-04T07:04:33.694Z,40.93
2018-09-04T07:06:37.601Z,42.37
2018-09-04T07:08:42.299Z,40.23
2018-09-04T07:10:46.178Z,41.60
2018-09-04T07:12:51.334Z,40.70
2018-09-04T07:14:56.634Z,41.17
2018-09-04T07:17:00.570Z,39.07
2018-09-04T07:19:04.589Z,39.70
2018-09-04T07:21:09.134Z,38.63
2018-09-04T07:23:14.585Z,40.13
2018-09-04T07:25:19.432Z,40.97
2018-09-04T07:27:23.314Z,40.53
2018-09-04T07:29:27.273Z,39.70
2018-09-04T07:31:33.842Z,38.43
2018-09-04T07:33:39.016Z,38.43
2018-09-04T07:35:44.120Z,35.77
2018-09-04T07:37:49.396Z,36.33
2018-09-04T07:39:54.249Z,36.37
2018-09-04T07:41:58.271Z,37.70
2018-09-04T07:44:02.234Z,35.97
2018-09-04T07:46:07.744Z,36.87
2018-09-04T07:48:12.502Z,34.53
2018-09-04T07:50:19.731Z,35.23
2018-09-04T07:52:25.776Z,32.43
2018-09-04T07:54:29.714Z,34.17
2018-09-04T07:56:33.758Z,36.23
2018-09-04T07:58:40.000Z,33.77
2018-09-04T08:00:43.927Z,32.30
2018-09-04T08:02:47.869Z,32.93
2018-09-04T08:04:53.182Z,30.43
2018-09-04T08:06:57.091Z,29.83
2018-09-04T08:09:02.519Z,26.07
2018-09-04T08:11:07.703Z,29.10
2018-09-04T08:13:11.596Z,30.03
2018-09-04T08:15:16.531Z,25.67
2018-09-04T08:17:20.622Z,23.23
2018-09-04T08:19:24.629Z,21.47
2018-09-04T08:21:30.647Z,21.67
2018-09-04T08:23:36.808Z,22.50
2018-09-04T08:25:44.498Z,19.57
2018-09-04T08:27:49.460Z,15.47
2018-09-04T08:29:54.747Z,21.20
2018-09-04T08:31:58.751Z,21.07
2018-09-04T08:34:02.663Z,21.67
2018-09-04T08:36:06.961Z,20.80
2018-09-04T08:38:11.009Z,20.63
2018-09-04T08:40:17.326Z,19.10
2018-09-04T08:42:24.409Z,18.83
2018-09-04T08:44:28.392Z,17.47
2018-09-04T08:46:32.237Z,17.83
2018-09-04T08:48:37.361Z,15.07
2018-09-04T08:50:41.405Z,15.10
2018-09-04T08:52:46.700Z,13.73
2018-09-04T08:54:52.305Z,11.87
2018-09-04T08:56:56.884Z,15.50
2018-09-04T08:59:00.765Z,17.00
2018-09-04T09:01:05.297Z,14.57
2018-09-04T09:03:09.815Z,13.90
2018-09-04T09:05:13.782Z,14.47
2018-09-04T09:07:18.717Z,13.50
2018-09-04T09:09:22.653Z,13.50
2018-09-04T09:11:28.308Z,12.40
2018-09-04T09:13:32.538Z,11.40
2018-09-04T09:15:36.505Z,12.07
2018-09-04T09:17:41.299Z,11.20
2018-09-04T09:19:45.962Z,9.43
2018-09-04T09:21:49.853Z,11.70
2018-09-04T09:23:53.705Z,10.53
2018-09-04T09:25:59.297Z,10.27
2018-09-04T09:28:06.412Z,9.60
2018-09-04T09:30:14.829Z,9.80
2018-09-04T09:32:18.779Z,9.60
2018-09-04T09:34:23.544Z,9.68
2018-09-04T09:36:27.486Z,9.67
2018-09-04T09:38:33.053Z,9.30
2018-09-04T09:40:37.300Z,11.70
2018-09-04T09:42:42.658Z,11.10
2018-09-04T09:44:48.784Z,10.73
2018-09-04T09:47:04.389Z,9.80
2018-09-04T09:49:09.403Z,10.77
2018-09-04T09:51:18.606Z,12.30
2018-09-04T09:53:22.692Z,10.80
2018-09-04T09:55:28.240Z,12.18
2018-09-04T09:57:37.493Z,12.00
2018-09-04T09:59:43.506Z,11.18
2018-09-04T10:01:53.393Z,11.03
2018-09-04T10:03:59.202Z,10.97
2018-09-04T10:06:03.165Z,10.82
2018-09-04T10:08:07.555Z,10.50
2018-09-04T10:10:12.661Z,12.00
2018-09-04T10:14:27.214Z,11.35
2018-09-04T10:16:32.299Z,11.10
2018-09-04T10:18:36.901Z,11.40
2018-09-04T10:20:42.178Z,10.45
2018-09-04T10:22:46.470Z,10.35
2018-09-04T10:24:50.507Z,12.83
2018-09-04T10:26:54.552Z,12.03
2018-09-04T10:28:59.829Z,11.93
2018-09-04T10:31:03.740Z,11.97
2018-09-04T10:33:07.701Z,12.33
2018-09-04T10:35:11.852Z,12.33
2018-09-04T10:37:15.752Z,13.07
2018-09-04T10:39:26.824Z,12.55
2018-09-04T10:41:31.025Z,13.45
2018-09-04T10:43:35.518Z,15.53
2018-09-04T10:45:44.564Z,11.97
2018-09-04T10:47:50.029Z,13.20
2018-09-04T10:49:53.953Z,12.93
2018-09-04T10:51:57.986Z,13.93
2018-09-04T10:54:03.529Z,13.62
2018-09-04T10:56:07.545Z,11.60
2018-09-04T10:58:11.856Z,12.18
2018-09-04T11:00:17.318Z,13.50
2018-09-04T11:02:22.090Z,13.08
2018-09-04T11:04:27.476Z,12.60
2018-09-04T11:06:31.510Z,12.45
2018-09-04T11:08:42.293Z,13.55
2018-09-04T11:10:48.419Z,14.15
2018-09-04T11:12:53.462Z,13.40
2018-09-04T11:14:58.166Z,13.53
2018-09-04T11:17:02.988Z,13.45
2018-09-04T11:19:06.930Z,13.15
2018-09-04T11:21:11.809Z,13.98
2018-09-04T11:23:18.632Z,13.32
2018-09-04T11:25:22.540Z,13.78
2018-09-04T11:27:26.448Z,13.43
2018-09-04T11:29:30.713Z,12.37
2018-09-04T11:31:35.372Z,13.18
2018-09-04T11:33:39.468Z,14.03
2018-09-04T11:35:44.681Z,12.28
2018-09-04T11:37:48.587Z,12.40
2018-09-04T11:39:53.628Z,13.40
2018-09-04T11:41:57.774Z,12.65
2018-09-04T11:44:02.530Z,13.22
2018-09-04T11:46:07.642Z,14.65
2018-09-04T11:48:17.083Z,13.20
2018-09-04T11:50:21.018Z,14.25
2018-09-04T11:52:24.988Z,12.68
2018-09-04T11:54:29.322Z,13.98
2018-09-04T11:56:38.432Z,12.60
2018-09-04T11:58:43.000Z,14.18
2018-09-04T12:00:48.410Z,15.03
2018-09-04T12:02:52.410Z,12.53
2018-09-04T12:04:56.504Z,13.35
2018-09-04T12:07:00.967Z,12.28
2018-09-04T12:09:06.160Z,13.20
2018-09-04T12:11:10.033Z,13.48
2018-09-04T12:13:18.181Z,13.83
2018-09-04T12:15:27.047Z,13.55
2018-09-04T12:17:30.998Z,13.38
2018-09-04T12:19:46.276Z,14.23
2018-09-04T12:21:50.321Z,13.85
2018-09-04T12:23:55.848Z,14.15
2018-09-04T12:26:00.889Z,15.45
2018-09-04T12:28:04.794Z,13.68
2018-09-04T12:30:09.146Z,14.13
2018-09-04T12:32:13.645Z,14.78
2018-09-04T12:34:18.995Z,14.00
2018-09-04T12:36:23.299Z,14.47
2018-09-04T12:38:35.449Z,14.15
2018-09-04T12:40:40.796Z,15.38
2018-09-04T12:42:45.533Z,14.95
2018-09-04T12:44:50.414Z,14.13
2018-09-04T12:46:58.888Z,14.78
2018-09-04T12:49:04.273Z,14.55
2018-09-04T12:51:09.022Z,14.95
2018-09-04T12:53:12.936Z,14.03
2018-09-04T12:55:18.300Z,13.72
2018-09-04T12:57:22.815Z,14.60
2018-09-04T12:59:31.176Z,14.78
2018-09-04T13:01:35.508Z,14.75
2018-09-04T13:03:42.565Z,15.50
2018-09-04T13:05:58.713Z,15.48
2018-09-04T13:08:02.630Z,15.00
2018-09-04T13:10:07.556Z,14.53
2018-09-04T13:12:12.025Z,14.20
2018-09-04T13:14:17.459Z,14.23
2018-09-04T13:16:29.263Z,14.45
2018-09-04T13:18:35.246Z,15.90
2018-09-04T13:20:39.587Z,16.55
2018-09-04T13:22:43.499Z,15.28
2018-09-04T13:24:49.370Z,14.55
2018-09-04T13:26:54.618Z,14.28
2018-09-04T13:28:59.302Z,15.32
2018-09-04T13:31:03.356Z,14.75
2018-09-04T13:33:08.136Z,14.80
2018-09-04T13:35:12.036Z,14.13
2018-09-04T13:37:17.381Z,14.75
2018-09-04T13:39:41.097Z,13.90
2018-09-04T13:41:44.999Z,14.50
2018-09-04T13:43:50.257Z,14.23
2018-09-04T13:46:08.370Z,15.18
2018-09-04T13:48:13.895Z,15.23
2018-09-04T13:50:19.936Z,14.90
2018-09-04T13:52:27.236Z,14.28
2018-09-04T13:54:32.017Z,14.07
2018-09-04T13:56:37.836Z,14.33
2018-09-04T13:58:43.306Z,12.90
2018-09-04T14:00:47.366Z,13.95
2018-09-04T14:02:52.970Z,12.68
2018-09-04T14:04:57.369Z,13.98
2018-09-04T14:07:03.013Z,14.30
2018-09-04T14:09:10.895Z,13.03
2018-09-04T14:11:17.199Z,14.25
2018-09-04T14:13:23.361Z,13.78
2018-09-04T14:15:34.716Z,14.20
2018-09-04T14:17:39.492Z,13.98
2018-09-04T14:19:44.031Z,13.83
2018-09-04T14:21:49.769Z,12.88
2018-09-04T14:23:53.657Z,14.33
2018-09-04T14:25:58.522Z,14.33
2018-09-04T14:28:03.347Z,14.15
2018-09-04T14:30:18.943Z,13.55
2018-09-04T14:32:16.994Z,13.78
2018-09-04T14:34:21.857Z,13.48
2018-09-04T14:36:28.624Z,13.08
2018-09-04T14:38:32.465Z,13.53
2018-09-04T14:40:36.384Z,13.83
2018-09-04T14:42:40.795Z,25.57
2018-09-04T14:44:44.742Z,13.78
2018-09-04T14:46:49.320Z,13.43
2018-09-04T14:48:54.385Z,13.93
2018-09-04T14:50:59.041Z,12.53
2018-09-04T14:53:05.037Z,13.00
2018-09-04T14:55:11.680Z,13.35
2018-09-04T14:57:17.202Z,12.73
2018-09-04T14:59:21.540Z,13.43
2018-09-04T15:01:27.072Z,13.05
2018-09-04T15:03:31.012Z,13.80
2018-09-04T15:05:35.565Z,13.32
2018-09-04T15:07:41.869Z,12.88
2018-09-04T15:09:45.824Z,13.65
2018-09-04T15:11:49.689Z,12.85
2018-09-04T15:13:53.665Z,13.53
2018-09-04T15:16:00.203Z,12.95
2018-09-04T15:18:04.774Z,13.55
2018-09-04T15:20:09.077Z,13.20
2018-09-04T15:22:12.990Z,13.72
2018-09-04T15:24:17.186Z,13.45
2018-09-04T15:26:21.472Z,13.90
2018-09-04T15:28:32.400Z,14.63
2018-09-04T15:30:36.553Z,14.23
2018-09-04T15:32:40.738Z,12.80
2018-09-04T15:34:46.846Z,14.15
2018-09-04T15:36:50.842Z,13.38
2018-09-04T15:38:55.343Z,13.38
2018-09-04T15:40:59.284Z,13.62
2018-09-04T15:43:03.290Z,13.70
2018-09-04T15:45:09.109Z,14.15
2018-09-04T15:47:15.201Z,14.40
2018-09-04T15:49:24.333Z,12.90
2018-09-04T15:51:29.628Z,13.65
2018-09-04T15:53:34.488Z,13.22
2018-09-04T15:55:38.505Z,14.38
2018-09-04T15:57:44.608Z,13.10
2018-09-04T15:59:48.525Z,13.38
2018-09-04T16:01:53.361Z,14.05
2018-09-04T16:03:58.319Z,13.48
2018-09-04T16:06:02.282Z,14.10
2018-09-04T16:08:06.218Z,14.00
2018-09-04T16:10:13.717Z,13.83
2018-09-04T16:12:17.726Z,13.65
2018-09-04T16:14:25.289Z,13.85
2018-09-04T16:16:29.911Z,14.38
2018-09-04T16:18:36.096Z,14.28
2018-09-04T16:20:42.855Z,14.05
2018-09-04T16:22:51.896Z,13.45
2018-09-04T16:24:56.568Z,13.32
2018-09-04T16:27:03.296Z,13.83
2018-09-04T16:29:11.706Z,13.03
2018-09-04T16:31:15.648Z,13.60
2018-09-04T16:33:19.621Z,13.83
2018-09-04T16:35:24.689Z,14.07
2018-09-04T16:37:28.811Z,14.00
2018-09-04T16:39:32.781Z,13.55
2018-09-04T16:41:37.281Z,12.63
2018-09-04T16:43:42.365Z,13.98
2018-09-04T16:45:57.222Z,13.75
2018-09-04T16:48:09.269Z,13.83
2018-09-04T16:50:21.576Z,12.88
2018-09-04T16:52:36.790Z,13.33
2018-09-04T16:54:53.807Z,13.53
2018-09-04T16:57:05.636Z,13.38
2018-09-04T16:59:13.232Z,13.50
2018-09-04T17:01:36.525Z,13.50
2018-09-04T17:03:46.451Z,13.23
2018-09-04T17:06:01.337Z,13.30
2018-09-04T17:08:19.486Z,13.80
2018-09-04T17:10:35.659Z,12.30
2018-09-04T17:12:55.589Z,11.17
2018-09-04T17:15:29.551Z,10.00
2018-09-04T17:17:40.291Z,9.23
2018-09-04T17:19:46.747Z,8.77
2018-09-04T17:21:55.499Z,8.73
2018-09-04T17:24:19.356Z,9.10
2018-09-04T17:26:37.793Z,8.80
2018-09-04T17:28:59.632Z,8.60
2018-09-04T17:31:20.043Z,8.33
2018-09-04T17:33:39.302Z,7.70
2018-09-04T17:35:56.347Z,8.30
2018-09-04T17:38:09.245Z,8.23
2018-09-04T17:40:26.935Z,7.53
2018-09-04T17:42:46.819Z,8.03
2018-09-04T17:44:54.223Z,7.77
2018-09-04T17:47:03.573Z,7.73
2018-09-04T17:49:18.503Z,7.70
2018-09-04T17:51:26.147Z,7.80
2018-09-04T17:53:39.464Z,8.20
2018-09-04T17:55:59.311Z,9.07
2018-09-04T17:58:11.437Z,8.60
2018-09-04T18:00:33.754Z,8.30
2018-09-04T18:02:41.679Z,8.53
2018-09-04T18:04:48.620Z,8.83
2018-09-04T18:06:55.559Z,8.57
2018-09-04T18:09:03.842Z,8.70
2018-09-04T18:11:14.096Z,8.93
2018-09-04T18:13:21.256Z,9.47
2018-09-04T18:17:46.172Z,9.10
2018-09-04T18:19:53.434Z,9.90
2018-09-04T18:22:01.583Z,9.33
2018-09-04T18:24:16.606Z,10.73
2018-09-04T18:26:31.334Z,10.83
2018-09-04T18:28:45.740Z,10.73
2018-09-04T18:33:46.062Z,11.20
2018-09-04T18:36:32.233Z,12.53
2018-09-04T18:41:25.033Z,12.37
2018-09-04T18:43:43.369Z,13.27
2018-09-04T18:46:03.415Z,12.47
2018-09-04T18:48:13.412Z,12.60
2018-09-04T18:50:30.199Z,12.63
2018-09-04T18:52:35.528Z,13.70
2018-09-04T18:54:47.515Z,13.20
2018-09-04T18:56:57.403Z,12.77
2018-09-04T18:59:03.776Z,13.73
2018-09-04T19:01:17.820Z,13.23
2018-09-04T19:03:24.509Z,13.83
2018-09-04T19:05:36.811Z,13.17
2018-09-04T19:07:46.697Z,13.03
2018-09-04T19:09:53.524Z,12.80
2018-09-04T19:12:02.911Z,13.20
2018-09-04T19:14:12.527Z,12.90
2018-09-04T19:16:23.712Z,12.53
2018-09-04T19:18:28.469Z,11.70
2018-09-04T19:20:39.156Z,11.50
2018-09-04T19:22:49.230Z,11.83
2018-09-04T19:25:01.225Z,11.47
2018-09-04T19:27:16.177Z,11.53
2018-09-04T19:29:23.949Z,11.60
2018-09-04T19:31:31.256Z,11.07
2018-09-04T19:33:36.078Z,11.43
2018-09-04T19:35:47.101Z,11.67
2018-09-04T19:37:54.529Z,11.10
2018-09-04T19:40:01.521Z,11.40
2018-09-04T19:42:12.373Z,10.80
2018-09-04T19:44:17.518Z,11.53
2018-09-04T19:46:24.176Z,12.87
2018-09-04T19:48:35.340Z,11.70
2018-09-04T19:50:43.386Z,11.77
2018-09-04T19:52:52.783Z,12.23
2018-09-04T19:55:04.550Z,12.47
2018-09-04T19:57:14.100Z,10.67
2018-09-04T19:59:21.503Z,11.30
2018-09-04T20:01:31.484Z,11.93
2018-09-04T20:03:37.215Z,12.20
2018-09-04T20:05:45.700Z,11.67
2018-09-04T20:07:54.439Z,11.73
2018-09-04T20:09:58.482Z,12.13
2018-09-04T20:12:05.174Z,11.87
2018-09-04T20:14:10.772Z,12.80
2018-09-04T20:16:21.897Z,13.17
2018-09-04T20:18:35.014Z,12.37
2018-09-04T20:20:40.065Z,12.63
2018-09-04T20:22:47.130Z,11.87
2018-09-04T20:24:51.978Z,12.03
2018-09-04T20:26:55.950Z,11.70
2018-09-04T20:29:00.788Z,12.30
2018-09-04T20:31:07.243Z,12.57
2018-09-04T20:33:11.177Z,12.03
2018-09-04T20:35:15.355Z,12.70
2018-09-04T20:37:20.676Z,12.33
2018-09-04T20:39:24.652Z,11.60
2018-09-04T20:41:28.649Z,12.20
2018-09-04T20:43:34.862Z,13.00
2018-09-04T20:45:39.670Z,12.80
2018-09-04T20:47:44.572Z,12.43
2018-09-04T20:49:50.943Z,13.50
2018-09-04T20:51:55.710Z,13.30
2018-09-04T20:54:00.307Z,13.10
2018-09-04T20:56:04.252Z,13.03
2018-09-04T20:58:20.216Z,12.37
2018-09-04T21:00:39.205Z,12.53
2018-09-04T21:02:54.361Z,13.83
2018-09-04T21:05:10.353Z,14.23
2018-09-04T21:07:21.911Z,14.87
2018-09-04T21:09:41.820Z,14.00
2018-09-04T21:11:45.761Z,16.27
2018-09-04T21:13:51.470Z,14.37
2018-09-04T21:15:56.375Z,15.97
2018-09-04T21:18:00.542Z,16.47
2018-09-04T21:20:05.892Z,17.07
2018-09-04T21:22:13.409Z,16.97
2018-09-04T21:24:19.585Z,17.30
2018-09-04T21:26:23.541Z,17.37
2018-09-04T21:28:29.285Z,17.97
2018-09-04T21:30:33.251Z,18.73
2018-09-04T21:32:37.150Z,17.73
2018-09-04T21:34:41.489Z,18.87
2018-09-04T21:36:47.742Z,19.30
2018-09-04T21:38:53.498Z,18.17
2018-09-04T21:40:59.255Z,18.80
2018-09-04T21:43:07.489Z,18.67
2018-09-04T21:45:18.036Z,17.87
2018-09-04T21:47:21.937Z,16.93
2018-09-04T21:49:28.966Z,18.23
2018-09-04T21:51:36.281Z,18.13
2018-09-04T21:53:42.329Z,18.27
2018-09-04T21:55:47.773Z,17.63
2018-09-04T21:57:53.634Z,17.43
2018-09-04T21:59:58.364Z,18.60
2018-09-04T22:02:14.790Z,17.17
2018-09-04T22:04:25.673Z,17.43
2018-09-04T22:06:31.979Z,18.70
2018-09-04T22:08:40.729Z,17.57
2018-09-04T22:10:51.777Z,18.73
2018-09-04T22:12:59.415Z,17.47
2018-09-04T22:15:28.262Z,18.17
2018-09-04T22:17:35.799Z,18.53
2018-09-04T22:19:41.637Z,18.93
2018-09-04T22:21:48.713Z,18.03
2018-09-04T22:24:01.428Z,18.50
2018-09-04T22:26:08.991Z,18.03
2018-09-04T22:28:16.243Z,20.20
2018-09-04T22:30:30.545Z,20.07
2018-09-04T22:32:36.511Z,19.47
2018-09-04T22:34:44.501Z,19.23
2018-09-04T22:36:52.446Z,18.77
2018-09-04T22:38:56.997Z,18.00
2018-09-04T22:41:02.524Z,19.37
2018-09-04T22:43:07.479Z,19.90
2018-09-04T22:45:13.800Z,18.50
2018-09-04T22:47:19.944Z,18.80
2018-09-04T22:49:24.081Z,19.57
2018-09-04T22:51:35.981Z,20.37
2018-09-04T22:53:40.285Z,20.03
2018-09-04T22:55:45.558Z,20.20
2018-09-04T22:57:51.548Z,19.37
2018-09-04T22:59:59.418Z,21.20
2018-09-04T23:02:05.513Z,20.27
2018-09-04T23:04:12.192Z,19.37
2018-09-04T23:06:16.984Z,19.70
2018-09-04T23:08:23.301Z,18.87
2018-09-04T23:10:27.886Z,18.60
2018-09-04T23:12:32.430Z,18.93
2018-09-04T23:14:36.912Z,17.13
2018-09-04T23:16:42.039Z,17.80
2018-09-04T23:18:47.821Z,17.33
2018-09-04T23:20:52.533Z,18.97
2018-09-04T23:22:57.916Z,18.57
2018-09-04T23:25:04.075Z,18.40
2018-09-04T23:27:08.666Z,18.73
2018-09-04T23:29:13.406Z,18.93
2018-09-04T23:31:21.281Z,18.50
2018-09-04T23:33:27.741Z,18.90
2018-09-04T23:35:33.716Z,18.77
2018-09-04T23:37:38.307Z,18.50
2018-09-04T23:39:42.207Z,19.17
2018-09-04T23:41:46.235Z,20.07
2018-09-04T23:43:51.105Z,20.43
2018-09-04T23:45:55.054Z,19.93
2018-09-04T23:47:59.795Z,19.43
2018-09-04T23:50:03.852Z,22.23
2018-09-04T23:52:08.384Z,21.53
2018-09-04T23:54:12.271Z,20.53
2018-09-04T23:56:16.858Z,21.53
2018-09-04T23:58:22.066Z,21.30
